Time;durP1;ratioP1;P1;durP2;ratioP2;P2;SDS_P1;SDS_P2;PMS_P1;PMS_P2;Temp;Humidity;BMP_temperature;BMP_pressure;BME280_temperature;BME280_humidity;BME280_pressure;Samples;Min_cycle;Max_cycle;Signal;HPM_P1;HPM_P2
2022/05/09 00:01:43;;;;;;;6.50;4.50;;;;;;;14.34;59.69;99511.69;220598;1275;22536;-71
2022/05/09 00:06:54;;;;;;;5.40;4.70;;;;;;;14.25;59.79;99519.22;220593;1275;242594;-70
2022/05/09 00:11:56;;;;;;;6.20;4.70;;;;;;;14.15;60.11;99517.27;220861;1275;22591;-70
2022/05/09 00:17:01;;;;;;;6.90;4.60;;;;;;;14.05;60.31;99513.98;219278;1274;22726;-71
2022/05/09 00:22:03;;;;;;;6.10;4.80;;;;;;;13.94;60.86;99512.05;220821;1274;22679;-70
2022/05/09 00:27:06;;;;;;;6.40;4.90;;;;;;;13.82;61.41;99509.42;220999;1274;22575;-69
2022/05/09 00:32:09;;;;;;;7.00;4.60;;;;;;;13.72;61.86;99511.98;219225;1277;22912;-70
2022/05/09 00:37:12;;;;;;;6.80;5.10;;;;;;;13.64;62.16;99515.21;219259;1274;22537;-70
2022/05/09 00:42:18;;;;;;;7.40;5.30;;;;;;;13.58;62.49;99521.59;219241;1274;24199;-70
2022/05/09 00:47:36;;;;;;;6.30;4.80;;;;;;;13.52;62.72;99529.54;219131;1277;22553;-69
2022/05/09 00:53:06;;;;;;;7.10;4.90;;;;;;;13.46;63.11;99523.75;219356;1274;24263;-71
2022/05/09 00:58:28;;;;;;;6.70;5.40;;;;;;;13.38;63.88;99530.19;220959;1274;24225;-70
2022/05/09 01:03:42;;;;;;;7.30;5.60;;;;;;;13.30;64.23;99530.27;220845;1276;25312;-70
2022/05/09 01:08:57;;;;;;;6.50;5.30;;;;;;;13.23;64.68;99529.48;219253;1275;22534;-70
2022/05/09 01:14:16;;;;;;;6.70;5.10;;;;;;;13.20;64.86;99531.02;219561;1274;22567;-68
2022/05/09 01:19:29;;;;;;;8.80;5.70;;;;;;;13.20;64.87;99526.40;220504;1274;23073;-69
2022/05/09 01:24:32;;;;;;;6.70;5.20;;;;;;;13.23;65.07;99528.20;219296;1275;25512;-70
2022/05/09 01:29:43;;;;;;;7.50;5.70;;;;;;;13.25;65.07;99530.86;219333;1274;26275;-70
2022/05/09 01:34:51;;;;;;;7.70;5.70;;;;;;;13.26;65.15;99537.69;219310;1277;25344;-71
2022/05/09 01:39:54;;;;;;;6.80;5.70;;;;;;;13.26;65.15;99535.48;219392;1275;22630;-69
2022/05/09 01:44:56;;;;;;;6.10;5.30;;;;;;;13.26;65.23;99539.95;219111;1275;23886;-69
2022/05/09 01:50:03;;;;;;;6.30;5.70;;;;;;;13.26;65.26;99537.95;220246;1274;23136;-69
2022/05/09 01:55:11;;;;;;;8.90;6.00;;;;;;;13.27;65.23;99535.84;220785;1274;22695;-70
2022/05/09 02:00:14;;;;;;;6.50;5.60;;;;;;;13.25;65.11;99542.21;220944;1274;22544;-70
2022/05/09 02:05:16;;;;;;;7.30;5.90;;;;;;;13.24;65.12;99544.91;219632;1274;22614;-70
2022/05/09 02:10:22;;;;;;;8.20;6.40;;;;;;;13.20;65.54;99549.33;219605;1275;22628;-71
2022/05/09 02:15:31;;;;;;;8.70;6.70;;;;;;;13.08;66.05;99553.59;220730;1274;22717;-70
2022/05/09 02:20:35;;;;;;;8.60;6.20;;;;;;;12.92;66.45;99550.06;220846;1274;23822;-69
2022/05/09 02:25:40;;;;;;;8.90;6.50;;;;;;;12.77;66.90;99548.36;219415;1274;25860;-68
2022/05/09 02:30:43;;;;;;;8.20;6.40;;;;;;;12.66;67.31;99553.10;219117;1274;22539;-70
2022/05/09 02:35:57;;;;;;;7.80;6.90;;;;;;;12.57;67.51;99550.70;219357;1274;22475;-69
2022/05/09 02:41:00;;;;;;;10.20;7.70;;;;;;;12.49;67.90;99558.73;219146;1275;22769;-70
2022/05/09 02:46:48;;;;;;;8.60;7.30;;;;;;;12.39;68.35;99557.72;219241;1274;22595;-69
2022/05/09 02:51:52;;;;;;;9.40;7.30;;;;;;;12.29;68.80;99564.20;219179;1274;22564;-69
2022/05/09 02:57:07;;;;;;;8.60;6.50;;;;;;;12.20;68.78;99571.89;219743;1274;22547;-70
2022/05/09 03:08:21;;;;;;;7.60;6.50;;;;;;;12.08;68.88;99579.27;219720;1274;22616;-70
2022/05/09 03:13:24;;;;;;;9.30;6.60;;;;;;;12.06;69.01;99578.22;219126;1275;22656;-69
2022/05/09 03:18:30;;;;;;;10.20;6.80;;;;;;;12.05;69.16;99584.35;220250;1274;24288;-70
2022/05/09 03:23:33;;;;;;;8.10;6.90;;;;;;;12.04;68.95;99585.00;220168;1274;24198;-70
2022/05/09 03:28:35;;;;;;;10.40;7.50;;;;;;;12.03;68.92;99595.48;219727;1274;24275;-70
2022/05/09 03:33:39;;;;;;;9.80;7.60;;;;;;;12.00;68.92;99598.39;219259;1275;26375;-70
2022/05/09 03:38:41;;;;;;;11.40;7.70;;;;;;;12.00;68.92;99604.35;220700;1274;24170;-69
2022/05/09 03:43:44;;;;;;;10.60;7.50;;;;;;;12.00;68.94;99607.52;219076;1275;25611;-71
2022/05/09 03:48:46;;;;;;;10.00;7.60;;;;;;;12.02;68.90;99609.56;219106;1275;22557;-70
2022/05/09 03:54:00;;;;;;;10.70;8.20;;;;;;;12.06;68.75;99609.36;218994;1274;25402;-70
2022/05/09 03:59:03;;;;;;;10.60;7.30;;;;;;;12.13;68.85;99608.67;221095;1274;22626;-69
2022/05/09 04:04:09;;;;;;;10.20;7.50;;;;;;;12.24;68.73;99610.17;219174;1274;22692;-70
2022/05/09 04:09:19;;;;;;;10.40;7.70;;;;;;;12.38;68.80;99608.95;219366;1274;22654;-71
2022/05/09 04:16:49;;;;;;;10.50;7.50;;;;;;;12.51;68.55;99607.63;219746;1274;22550;-69
2022/05/09 04:19:44;;;;;;;9.50;7.20;;;;;;;12.65;68.41;99611.44;219247;1274;22593;-70
2022/05/09 04:24:47;;;;;;;10.20;6.80;;;;;;;12.76;68.26;99617.41;219410;1274;24442;-70
2022/05/09 04:29:50;;;;;;;10.20;7.00;;;;;;;12.90;68.31;99622.36;219395;1274;25590;-70
2022/05/09 04:34:53;;;;;;;10.00;7.40;;;;;;;13.04;68.07;99626.27;219234;1274;22537;-70
2022/05/09 04:39:59;;;;;;;11.00;8.50;;;;;;;13.18;67.78;99625.74;219263;1274;24321;-70
2022/05/09 04:45:10;;;;;;;11.40;8.80;;;;;;;13.33;67.55;99632.66;219692;1274;22541;-70
2022/05/09 04:55:31;;;;;;;10.80;8.30;;;;;;;13.77;67.22;99641.87;219218;1274;25251;-70
2022/05/09 05:00:37;;;;;;;11.10;8.20;;;;;;;14.00;66.94;99640.77;219311;1274;22631;-70
2022/05/09 05:05:45;;;;;;;15.70;9.40;;;;;;;14.19;66.19;99645.85;219224;1274;22654;-70
2022/05/09 05:10:52;;;;;;;12.70;9.60;;;;;;;14.35;65.82;99645.57;219607;1274;22568;-71
2022/05/09 05:16:03;;;;;;;12.00;8.50;;;;;;;14.53;65.63;99653.02;220767;1276;22663;-70
2022/05/09 05:21:13;;;;;;;13.00;10.30;;;;;;;14.69;65.09;99656.41;220758;1274;24836;-70
2022/05/09 05:26:33;;;;;;;15.80;9.20;;;;;;;14.81;64.81;99662.05;219234;1274;25069;-70
2022/05/09 05:31:43;;;;;;;11.80;9.50;;;;;;;14.90;64.59;99662.34;219260;1275;22570;-70
2022/05/09 05:36:46;;;;;;;13.70;9.40;;;;;;;14.99;64.30;99663.33;219650;1274;22547;-70
2022/05/09 05:41:48;;;;;;;11.60;9.20;;;;;;;15.08;64.04;99666.02;219261;1274;24395;-70
2022/05/09 05:46:56;;;;;;;11.50;8.60;;;;;;;15.19;63.89;99672.47;219541;1274;24234;-71
2022/05/09 05:52:03;;;;;;;11.70;10.40;;;;;;;15.41;64.00;99671.91;219574;1274;25210;-71
2022/05/09 05:57:27;;;;;;;13.80;8.90;;;;;;;15.68;63.90;99677.58;218409;1275;23365;-71
2022/05/09 06:02:29;;;;;;;11.60;8.40;;;;;;;15.96;63.29;99679.40;221039;1275;22740;-70
2022/05/09 06:07:35;;;;;;;8.50;7.00;;;;;;;16.23;62.83;99680.91;218770;1274;26361;-69
2022/05/09 06:12:40;;;;;;;11.00;8.50;;;;;;;16.38;61.93;99692.21;220321;1274;22529;-69
2022/05/09 06:17:59;;;;;;;11.60;8.00;;;;;;;16.39;61.16;99695.75;218896;1274;24241;-69
2022/05/09 06:23:03;;;;;;;9.70;6.70;;;;;;;16.38;60.64;99697.29;219565;1274;22565;-70
2022/05/09 06:28:11;;;;;;;8.90;6.10;;;;;;;16.38;60.31;99695.08;219813;1274;25258;-70
2022/05/09 06:33:24;;;;;;;9.20;7.00;;;;;;;16.41;60.04;99697.91;219144;1274;24342;-70
2022/05/09 06:38:33;;;;;;;8.80;6.60;;;;;;;16.47;59.70;99700.02;219018;1274;22591;-69
2022/05/09 06:43:36;;;;;;;9.20;6.30;;;;;;;16.46;59.42;99701.33;219239;1273;25357;-70
2022/05/09 06:48:40;;;;;;;6.60;5.50;;;;;;;16.43;59.08;99704.23;218774;1274;24233;-70
2022/05/09 06:53:56;;;;;;;7.70;6.30;;;;;;;16.39;59.16;99699.48;219041;1274;25409;-71
2022/05/09 06:59:02;;;;;;;7.80;5.60;;;;;;;16.45;59.05;99700.06;218837;1276;23780;-70
2022/05/09 07:04:05;;;;;;;8.10;4.90;;;;;;;16.53;59.15;99698.59;218906;1274;24946;-70
2022/05/09 07:09:10;;;;;;;7.40;5.70;;;;;;;16.64;59.02;99698.70;219545;1274;22538;-70
2022/05/09 07:14:12;;;;;;;8.50;5.10;;;;;;;16.84;59.14;99701.66;221052;1274;24225;-69
2022/05/09 07:19:16;;;;;;;8.30;6.00;;;;;;;17.09;58.55;99703.44;218749;1274;26024;-68
2022/05/09 07:24:18;;;;;;;7.20;5.50;;;;;;;17.25;57.98;99707.55;218922;1274;23172;-69
2022/05/09 07:29:21;;;;;;;8.60;7.20;;;;;;;17.35;57.37;99710.16;218613;1274;22633;-69
2022/05/09 07:34:23;;;;;;;9.10;6.60;;;;;;;17.43;56.93;99705.73;218726;1274;22534;-69
2022/05/09 07:39:25;;;;;;;7.40;5.90;;;;;;;17.62;57.13;99708.38;218771;1274;22705;-69
2022/05/09 07:44:33;;;;;;;9.00;5.20;;;;;;;17.89;56.70;99709.75;218826;1274;22837;-69
2022/05/09 07:49:43;;;;;;;6.20;4.80;;;;;;;18.18;55.71;99706.63;218845;1274;22580;-69
2022/05/09 07:55:01;;;;;;;6.00;4.00;;;;;;;18.48;54.56;99703.24;219113;1274;22605;-68
2022/05/09 08:00:06;;;;;;;5.00;3.70;;;;;;;18.81;53.72;99703.85;219566;1274;24311;-72
2022/05/09 08:05:11;;;;;;;6.90;3.50;;;;;;;19.05;52.44;99705.48;221301;1274;22556;-70
2022/05/09 08:10:15;;;;;;;5.10;3.20;;;;;;;19.37;51.80;99704.46;220180;1274;22708;-70
2022/05/09 08:15:20;;;;;;;6.80;3.70;;;;;;;19.51;49.88;99706.29;224489;1274;25360;-70
2022/05/09 08:20:35;;;;;;;4.70;3.00;;;;;;;19.44;48.32;99710.74;218693;1274;22715;-70
2022/05/09 08:25:42;;;;;;;3.50;2.20;;;;;;;19.58;47.88;99713.48;220974;1274;22566;-71
2022/05/09 08:30:47;;;;;;;4.40;3.00;;;;;;;19.80;46.90;99716.95;221307;1274;22557;-70
2022/05/09 08:35:52;;;;;;;5.30;3.00;;;;;;;20.00;46.26;99724.89;220926;1274;24260;-70
2022/05/09 08:41:13;;;;;;;4.00;2.90;;;;;;;20.22;46.25;99719.68;220038;1274;22602;-67
2022/05/09 08:46:58;;;;;;;4.30;2.20;;;;;;;20.62;45.47;99718.53;223908;1273;22592;-68
2022/05/09 08:52:08;;;;;;;3.30;2.30;;;;;;;20.98;43.89;99718.76;222629;1274;24222;-69
2022/05/09 08:57:25;;;;;;;3.90;2.20;;;;;;;21.31;43.07;99722.69;218802;1274;23961;-69
2022/05/09 09:02:39;;;;;;;2.60;2.20;;;;;;;21.47;42.20;99720.27;218771;1274;22593;-70
2022/05/09 09:08:10;;;;;;;4.00;1.80;;;;;;;21.55;41.09;99725.33;221387;1275;22544;-69
2022/05/09 09:13:30;;;;;;;3.50;1.80;;;;;;;21.32;40.66;99735.27;219500;1273;26510;-69
2022/05/09 09:18:34;;;;;;;2.60;1.90;;;;;;;21.43;41.25;99732.70;221161;1273;22534;-69
2022/05/09 09:24:04;;;;;;;3.10;2.20;;;;;;;21.72;41.08;99727.60;218790;1274;24108;-70
2022/05/09 09:29:31;;;;;;;2.40;2.00;;;;;;;21.84;40.11;99730.84;218834;1274;22535;-69
2022/05/09 09:35:03;;;;;;;2.40;2.00;;;;;;;21.60;39.45;99728.50;218712;1275;22635;-69
2022/05/09 09:40:08;;;;;;;6.90;2.20;;;;;;;21.35;39.39;99725.95;218720;1275;25473;-69
2022/05/09 09:45:35;;;;;;;4.00;2.10;;;;;;;21.02;39.49;99732.27;220078;1274;22564;-69
2022/05/09 09:51:00;;;;;;;7.60;1.80;;;;;;;20.63;39.57;99725.83;218884;1274;24271;-69
2022/05/09 09:56:25;;;;;;;2.70;1.90;;;;;;;20.17;39.62;99729.70;219841;1274;22551;-69
2022/05/09 10:01:32;;;;;;;3.20;2.10;;;;;;;19.86;40.01;99725.05;219197;1274;22793;-69
2022/05/09 10:07:12;;;;;;;5.50;2.10;;;;;;;20.17;40.40;99723.98;219527;1274;22566;-71
2022/05/09 10:12:30;;;;;;;1.70;1.60;;;;;;;20.87;39.99;99714.00;218673;1276;24997;-70
2022/05/09 10:17:40;;;;;;;3.20;2.40;;;;;;;21.43;39.26;99713.11;218873;1276;22711;-70
2022/05/09 10:28:14;;;;;;;3.00;2.20;;;;;;;21.09;38.54;99714.55;218913;1274;22548;-70
2022/05/09 10:33:45;;;;;;;4.20;2.10;;;;;;;20.82;38.69;99708.92;219271;1276;22584;-69
2022/05/09 10:38:58;;;;;;;4.50;2.20;;;;;;;20.87;38.72;99703.20;218863;1274;22647;-69
2022/05/09 10:44:15;;;;;;;3.30;1.90;;;;;;;21.20;38.51;99702.79;220822;1274;22568;-69
2022/05/09 10:50:09;;;;;;;2.70;2.20;;;;;;;21.45;37.76;99697.02;218823;1275;24778;-69
2022/05/09 10:55:22;;;;;;;3.30;2.30;;;;;;;21.36;36.78;99701.21;219598;1274;22570;-70
2022/05/09 11:00:27;;;;;;;6.10;2.30;;;;;;;21.20;37.04;99695.56;219240;1274;25431;-70
2022/05/09 11:06:00;;;;;;;2.80;2.50;;;;;;;21.41;37.00;99686.35;219579;1274;26518;-69
2022/05/09 11:11:55;;;;;;;2.70;1.90;;;;;;;21.70;36.48;99677.33;218700;1274;22479;-69
2022/05/09 11:17:12;;;;;;;2.60;1.90;;;;;;;21.91;35.77;99675.98;219044;1274;25379;-69
2022/05/09 11:22:35;;;;;;;4.10;2.10;;;;;;;21.87;35.57;99674.82;219023;1275;24194;-70
2022/05/09 11:27:56;;;;;;;3.10;2.20;;;;;;;21.76;35.42;99667.42;218955;1275;24264;-70
2022/05/09 11:33:32;;;;;;;4.90;2.50;;;;;;;21.61;35.42;99665.64;218861;1275;24417;-70
2022/05/09 11:38:48;;;;;;;5.40;2.20;;;;;;;21.87;35.60;99658.62;218989;1275;22564;-69
2022/05/09 11:44:24;;;;;;;5.50;2.40;;;;;;;22.18;35.58;99651.45;219737;1274;26517;-70
2022/05/09 11:49:58;;;;;;;3.10;2.00;;;;;;;22.58;34.98;99652.46;219450;1276;22614;-71
2022/05/09 11:55:11;;;;;;;6.20;2.30;;;;;;;22.48;33.68;99654.43;218882;1274;22569;-71
2022/05/09 12:00:25;;;;;;;4.30;2.10;;;;;;;21.90;33.58;99645.55;220972;1274;22546;-70
2022/05/09 12:05:31;;;;;;;4.90;3.20;;;;;;;21.64;34.17;99644.98;221622;1277;313320;-70
2022/05/09 12:10:40;;;;;;;5.30;2.60;;;;;;;21.62;33.69;99634.64;221189;1277;23375;-70
2022/05/09 12:15:56;;;;;;;4.30;2.00;;;;;;;21.75;34.10;99628.91;221032;1274;24308;-70
2022/05/09 12:21:12;;;;;;;3.60;2.10;;;;;;;21.87;32.87;99624.95;220947;1275;22535;-69
2022/05/09 12:26:29;;;;;;;3.50;2.10;;;;;;;21.84;33.00;99622.52;219019;1274;24267;-70
2022/05/09 12:31:48;;;;;;;4.00;2.20;;;;;;;21.79;32.75;99614.30;218924;1275;24203;-69
2022/05/09 12:36:51;;;;;;;5.10;2.40;;;;;;;21.76;33.00;99614.36;220909;1277;23047;-70
2022/05/09 12:41:56;;;;;;;5.80;1.90;;;;;;;21.84;32.92;99604.77;221011;1275;24265;-70
2022/05/09 12:47:09;;;;;;;3.10;1.90;;;;;;;21.92;32.76;99597.98;221035;1274;22815;-69
2022/05/09 12:52:19;;;;;;;7.50;2.40;;;;;;;21.98;32.40;99592.27;219490;1274;25311;-69
2022/05/09 12:57:32;;;;;;;3.50;2.00;;;;;;;21.94;31.62;99587.84;219132;1276;22565;-69
2022/05/09 13:02:34;;;;;;;3.50;1.80;;;;;;;21.90;31.25;99594.90;218815;1274;23634;-69
2022/05/09 13:07:59;;;;;;;4.00;2.00;;;;;;;21.83;31.29;99585.20;218768;1274;24233;-70
2022/05/09 13:13:05;;;;;;;5.20;2.30;;;;;;;21.79;31.19;99583.04;218858;1276;22653;-69
2022/05/09 13:18:14;;;;;;;3.90;1.90;;;;;;;21.77;31.15;99572.63;219257;1276;23393;-69
2022/05/09 13:23:30;;;;;;;3.20;1.90;;;;;;;21.83;31.18;99562.81;219156;1274;25195;-69
2022/05/09 13:28:43;;;;;;;3.70;1.80;;;;;;;21.85;31.70;99558.69;222173;1274;22547;-70
2022/05/09 13:33:50;;;;;;;5.70;2.10;;;;;;;21.95;31.85;99553.98;220993;1275;23028;-70
2022/05/09 13:38:55;;;;;;;3.90;1.80;;;;;;;21.98;31.70;99548.30;220995;1274;24413;-70
2022/05/09 13:44:01;;;;;;;4.50;2.20;;;;;;;22.06;32.16;99547.42;221025;1276;22609;-70
2022/05/09 13:49:11;;;;;;;5.80;2.10;;;;;;;22.13;31.71;99543.57;221022;1275;22573;-71
2022/05/09 13:54:22;;;;;;;2.50;1.80;;;;;;;22.11;31.01;99540.00;221028;1274;22600;-70
2022/05/09 13:59:24;;;;;;;5.90;2.10;;;;;;;22.00;30.80;99540.01;223152;1274;22596;-70
2022/05/09 14:04:32;;;;;;;3.70;1.70;;;;;;;22.00;30.93;99528.23;221118;1274;22727;-70
2022/05/09 14:09:34;;;;;;;3.70;2.10;;;;;;;22.06;31.02;99528.71;221080;1277;23167;-70
2022/05/09 14:14:39;;;;;;;5.00;2.30;;;;;;;21.98;30.85;99521.96;220837;1280;22990;-71
2022/05/09 14:19:41;;;;;;;2.70;1.90;;;;;;;21.89;30.80;99523.11;222144;1275;22564;-70
2022/05/09 14:30:35;;;;;;;3.60;2.40;;;;;;;21.90;30.91;99512.05;220922;1277;22562;-71
2022/05/09 14:35:43;;;;;;;5.60;2.30;;;;;;;21.87;30.82;99505.68;220960;1275;25237;-69
2022/05/09 14:40:47;;;;;;;3.90;2.00;;;;;;;21.82;30.68;99504.66;219682;1274;24199;-70
2022/05/09 14:46:07;;;;;;;3.70;2.30;;;;;;;21.76;30.75;99500.98;218999;1275;22680;-71
2022/05/09 14:51:17;;;;;;;4.60;1.80;;;;;;;21.72;30.87;99499.23;221133;1274;22578;-70
2022/05/09 15:02:09;;;;;;;3.00;2.00;;;;;;;21.75;30.71;99490.12;220780;1274;25368;-70
2022/05/09 15:07:12;;;;;;;5.40;3.40;;;;;;;21.75;30.49;99490.84;219180;1275;22620;-70
2022/05/09 15:12:23;;;;;;;5.50;2.30;;;;;;;21.74;30.72;99494.14;219323;1274;24203;-71
2022/05/09 15:17:29;;;;;;;4.80;2.10;;;;;;;21.65;30.78;99492.98;220952;1274;24800;-70
2022/05/09 15:22:32;;;;;;;5.40;2.00;;;;;;;21.58;31.04;99481.09;220766;1274;22630;-71
2022/05/09 15:27:39;;;;;;;3.40;2.00;;;;;;;21.62;31.29;99484.38;220665;1279;25409;-70
2022/05/09 15:33:01;;;;;;;4.00;1.90;;;;;;;21.53;30.87;99485.37;220721;1276;22682;-70
2022/05/09 15:38:24;;;;;;;6.30;2.10;;;;;;;21.50;31.32;99473.12;220627;1275;27780;-71
2022/05/09 15:43:29;;;;;;;4.50;2.30;;;;;;;21.55;31.32;99477.25;220825;1274;22683;-70
2022/05/09 15:48:31;;;;;;;4.50;1.80;;;;;;;21.56;31.18;99469.89;220764;1274;25260;-71
2022/05/09 15:53:37;;;;;;;5.50;2.30;;;;;;;21.55;31.11;99468.23;220622;1274;24371;-70
2022/05/09 15:58:58;;;;;;;4.40;1.90;;;;;;;21.56;31.40;99471.05;220824;1277;22861;-70
2022/05/09 16:04:07;;;;;;;3.40;2.00;;;;;;;21.53;31.56;99468.22;220781;1277;22955;-70
2022/05/09 16:14:42;;;;;;;3.70;2.50;;;;;;;21.43;31.40;99464.48;220731;1274;22874;-71
2022/05/09 16:19:58;;;;;;;4.00;2.00;;;;;;;21.35;31.43;99461.13;220727;1276;22692;-71
2022/05/09 16:25:03;;;;;;;4.90;2.10;;;;;;;21.34;31.56;99457.69;220751;1277;22634;-71
2022/05/09 16:30:17;;;;;;;2.60;1.80;;;;;;;21.29;31.88;99458.17;220807;1275;22558;-71
2022/05/09 16:35:19;;;;;;;3.50;2.30;;;;;;;21.24;32.07;99459.66;220662;1274;22539;-71
2022/05/09 16:40:36;;;;;;;4.10;2.00;;;;;;;21.16;32.38;99455.22;220854;1277;22603;-71
2022/05/09 16:45:40;;;;;;;3.60;1.80;;;;;;;21.04;32.52;99452.19;221119;1276;22804;-70
2022/05/09 16:50:47;;;;;;;3.80;2.20;;;;;;;20.93;32.35;99454.52;220596;1278;22605;-70
2022/05/09 16:55:51;;;;;;;6.90;3.80;;;;;;;20.83;32.53;99458.63;220940;1276;25470;-71
2022/05/09 17:00:55;;;;;;;6.50;2.70;;;;;;;20.76;32.65;99454.58;220601;1274;22536;-71
2022/05/09 17:06:00;;;;;;;5.20;2.60;;;;;;;20.63;32.92;99452.92;221021;1275;25106;-70
2022/05/09 17:11:02;;;;;;;3.50;1.80;;;;;;;20.51;33.30;99459.59;220833;1274;24241;-70
2022/05/09 17:16:08;;;;;;;4.20;2.20;;;;;;;20.38;33.32;99464.13;220572;1275;22724;-70
2022/05/09 17:21:10;;;;;;;2.80;1.90;;;;;;;20.23;33.53;99462.15;220676;1278;22707;-71
2022/05/09 17:26:24;;;;;;;3.30;2.30;;;;;;;20.01;33.65;99467.00;220422;1278;22695;-71
2022/05/09 17:31:33;;;;;;;4.70;3.30;;;;;;;19.68;34.06;99474.10;220446;1274;25308;-71
2022/05/09 17:42:10;;;;;;;4.20;3.10;;;;;;;19.16;34.89;99476.56;220511;1275;25611;-71
2022/05/09 17:47:14;;;;;;;4.30;2.70;;;;;;;18.93;35.25;99474.51;220935;1275;24234;-71
2022/05/09 17:52:23;;;;;;;4.10;2.50;;;;;;;18.70;35.44;99479.09;221482;1277;22551;-72
2022/05/09 17:57:26;;;;;;;4.90;2.80;;;;;;;18.45;35.97;99476.43;220577;1274;23360;-71
2022/05/09 18:02:30;;;;;;;4.10;2.30;;;;;;;18.18;36.52;99478.46;220442;1276;22569;-70
2022/05/09 18:07:35;;;;;;;4.00;2.40;;;;;;;17.94;36.96;99473.33;220561;1278;22553;-70
2022/05/09 18:12:45;;;;;;;3.90;2.00;;;;;;;17.73;37.47;99474.14;220901;1274;25423;-71
2022/05/09 18:17:54;;;;;;;4.90;2.40;;;;;;;17.50;37.84;99484.27;220647;1277;22541;-71
2022/05/09 18:23:01;;;;;;;5.00;3.00;;;;;;;17.27;38.19;99489.00;221675;1274;24234;-70
2022/05/09 18:28:04;;;;;;;5.00;2.90;;;;;;;17.05;38.58;99492.80;221007;1275;22580;-71
2022/05/09 18:33:08;;;;;;;3.90;2.90;;;;;;;16.88;38.97;99492.83;220597;1274;22610;-71
2022/05/09 18:38:32;;;;;;;6.60;4.80;;;;;;;16.71;39.41;99498.24;221957;1275;22671;-70
2022/05/09 18:43:34;;;;;;;5.20;3.00;;;;;;;16.51;39.75;99504.48;221102;1277;24782;-71
2022/05/09 18:48:37;;;;;;;4.60;2.70;;;;;;;16.34;40.29;99510.27;221087;1274;22663;-70
2022/05/09 18:53:43;;;;;;;4.00;2.70;;;;;;;16.19;40.66;99513.77;220576;1277;22540;-70
2022/05/09 18:58:45;;;;;;;5.30;2.80;;;;;;;16.08;40.97;99515.83;220652;1274;22726;-70
2022/05/09 19:03:48;;;;;;;3.60;3.10;;;;;;;15.94;41.31;99515.84;220660;1275;23450;-71
2022/05/09 19:08:53;;;;;;;4.50;3.10;;;;;;;15.80;41.60;99522.23;220804;1277;24113;-69
2022/05/09 19:13:56;;;;;;;6.80;2.90;;;;;;;15.66;41.89;99524.70;219272;1274;24829;-71
2022/05/09 19:19:02;;;;;;;3.80;2.90;;;;;;;15.51;42.18;99525.56;221096;1274;22714;-70
2022/05/09 19:24:05;;;;;;;9.80;3.60;;;;;;;15.37;42.43;99528.84;219392;1275;24257;-71
2022/05/09 19:29:18;;;;;;;5.30;3.30;;;;;;;15.25;42.78;99526.63;221419;1275;22565;-70
2022/05/09 19:34:32;;;;;;;5.20;3.00;;;;;;;15.14;43.09;99532.28;220807;1276;22784;-70
2022/05/09 19:39:36;;;;;;;5.60;3.60;;;;;;;15.03;43.33;99534.05;220901;1274;22535;-70
2022/05/09 19:44:43;;;;;;;8.10;3.50;;;;;;;14.93;43.56;99535.43;220720;1275;22646;-71
2022/05/09 19:49:48;;;;;;;6.90;3.60;;;;;;;14.83;43.81;99534.54;221085;1275;23243;-71
2022/05/09 19:54:51;;;;;;;8.20;4.90;;;;;;;14.75;43.89;99531.50;220797;1277;25373;-71
2022/05/09 19:59:54;;;;;;;8.00;4.80;;;;;;;14.69;44.11;99539.11;220675;1275;22566;-71
2022/05/09 20:05:00;;;;;;;12.00;6.10;;;;;;;14.66;44.29;99543.58;218999;1276;24861;-70
2022/05/09 20:10:06;;;;;;;8.70;5.50;;;;;;;14.61;44.58;99544.07;220793;1276;22775;-69
2022/05/09 20:15:12;;;;;;;9.10;5.50;;;;;;;14.53;44.70;99540.37;219401;1275;22562;-71
2022/05/09 20:20:27;;;;;;;9.50;5.10;;;;;;;14.43;44.88;99537.31;221576;1274;22615;-70
2022/05/09 20:31:11;;;;;;;9.50;5.60;;;;;;;14.23;45.29;99539.30;218716;1276;25414;-70
2022/05/09 20:36:22;;;;;;;9.90;5.10;;;;;;;14.13;45.42;99538.11;220756;1275;22561;-70
2022/05/09 20:41:25;;;;;;;9.40;4.60;;;;;;;14.04;45.72;99535.06;220760;1275;22760;-70
2022/05/09 20:46:32;;;;;;;7.50;4.50;;;;;;;13.96;45.86;99538.89;220832;1275;23099;-70
2022/05/09 20:51:36;;;;;;;6.80;3.80;;;;;;;13.88;46.06;99541.02;220955;1275;22554;-71
2022/05/09 20:56:38;;;;;;;6.40;4.50;;;;;;;13.81;46.31;99538.52;220568;1274;25322;-71
2022/05/09 21:01:53;;;;;;;8.00;4.20;;;;;;;13.73;46.45;99542.45;220613;1275;24215;-71
2022/05/09 21:07:00;;;;;;;4.70;3.60;;;;;;;13.67;46.68;99544.15;220657;1275;25424;-71
2022/05/09 21:12:18;;;;;;;4.70;3.70;;;;;;;13.62;46.89;99549.44;220626;1275;25524;-71
2022/05/09 21:17:34;;;;;;;5.10;3.10;;;;;;;13.56;47.15;99551.77;220625;1274;23360;-70
2022/05/09 21:22:48;;;;;;;7.00;3.30;;;;;;;13.52;47.54;99557.05;220517;1276;25374;-69
2022/05/09 21:27:56;;;;;;;6.40;3.80;;;;;;;13.44;47.79;99555.42;220679;1275;22552;-71
2022/05/09 21:33:05;;;;;;;5.40;3.80;;;;;;;13.36;48.16;99556.52;219407;1274;24228;-70
2022/05/09 21:43:53;;;;;;;7.50;4.10;;;;;;;13.14;48.96;99558.33;220846;1274;25393;-70
2022/05/09 21:49:02;;;;;;;6.10;4.00;;;;;;;13.04;49.34;99553.22;221049;1274;22636;-70
2022/05/09 21:54:18;;;;;;;6.20;3.60;;;;;;;12.94;49.73;99554.92;220525;1274;24508;-71
2022/05/09 21:59:24;;;;;;;8.00;4.20;;;;;;;12.84;50.26;99555.95;220852;1277;22555;-70
2022/05/09 22:04:46;;;;;;;6.80;4.10;;;;;;;12.72;50.67;99555.23;220884;1274;25341;-71
2022/05/09 22:09:57;;;;;;;6.30;4.00;;;;;;;12.58;50.99;99556.39;220841;1274;25370;-71
2022/05/09 22:15:27;;;;;;;9.50;4.40;;;;;;;12.44;51.38;99551.67;220880;1274;25375;-71
2022/05/09 22:21:00;;;;;;;5.60;4.20;;;;;;;12.33;51.77;99550.80;220635;1274;27272;-71
2022/05/09 22:26:08;;;;;;;6.60;4.00;;;;;;;12.22;52.17;99550.13;220963;1274;22812;-71
2022/05/09 22:31:29;;;;;;;;;;;;;;;;;;;;;
2022/05/09 22:36:49;;;;;;;7.10;4.00;;;;;;;12.03;52.90;99548.33;221018;1274;23255;-71
2022/05/09 22:41:53;;;;;;;7.30;4.60;;;;;;;11.94;53.33;99547.66;221609;1275;22549;-71
2022/05/09 22:47:01;;;;;;;7.50;4.50;;;;;;;11.85;53.41;99545.66;220738;1274;22962;-71
2022/05/09 22:52:07;;;;;;;6.30;4.60;;;;;;;11.73;53.82;99545.61;221438;1274;23862;-71
2022/05/09 22:57:43;;;;;;;6.40;4.80;;;;;;;11.63;53.99;99541.86;220737;1274;25470;-71
2022/05/09 23:03:05;;;;;;;8.30;4.70;;;;;;;11.54;54.44;99538.85;220739;1274;24267;-70
2022/05/09 23:08:13;;;;;;;6.20;4.30;;;;;;;11.44;54.35;99536.38;220922;1274;22707;-70
2022/05/09 23:13:50;;;;;;;6.00;4.60;;;;;;;11.34;54.38;99536.52;220779;1274;24266;-70
2022/05/09 23:19:08;;;;;;;6.30;3.90;;;;;;;11.22;54.62;99534.73;220967;1274;25695;-70
2022/05/09 23:24:33;;;;;;;;;;;;;;;;;;;;;
2022/05/09 23:29:36;;;;;;;5.40;3.70;;;;;;;11.04;55.16;99524.35;219178;1275;22622;-70
2022/05/09 23:34:47;;;;;;;6.30;3.80;;;;;;;10.98;55.42;99522.05;219261;1274;22551;-69
2022/05/09 23:39:51;;;;;;;6.10;3.90;;;;;;;10.94;55.66;99521.58;219601;1275;22694;-71
2022/05/09 23:45:01;;;;;;;7.00;4.00;;;;;;;10.86;55.74;99519.15;219251;1274;22605;-70
2022/05/09 23:50:19;;;;;;;5.10;3.70;;;;;;;10.81;55.65;99525.58;221093;1274;24229;-71
2022/05/09 23:55:38;;;;;;;6.30;3.80;;;;;;;10.71;55.87;99521.45;219345;1274;22563;-70
